Time;durP1;ratioP1;P1;durP2;ratioP2;P2;SDS_P1;SDS_P2;PMS_P1;PMS_P2;Temp;Humidity;BMP_temperature;BMP_pressure;BME280_temperature;BME280_humidity;BME280_pressure;Samples;Min_cycle;Max_cycle;Signal;HPM_P1;HPM_P2
2023/03/27 00:00:43;;;;;;;5.30;1.50;;;;;;;3.11;100.00;101704.53;5015169;28;20425;-79
2023/03/27 00:03:10;;;;;;;5.07;1.67;;;;;;;3.02;100.00;101710.22;5032570;28;20033;-78
2023/03/27 00:05:36;;;;;;;5.97;1.42;;;;;;;2.95;100.00;101716.66;5033021;28;20033;-79
2023/03/27 00:08:02;;;;;;;7.00;1.65;;;;;;;2.87;100.00;101710.91;5032568;28;20037;-79
2023/03/27 00:10:27;;;;;;;7.00;1.67;;;;;;;2.79;100.00;101717.34;5032643;28;20108;-79
2023/03/27 00:12:53;;;;;;;10.00;1.40;;;;;;;2.76;100.00;101729.75;5033362;28;20037;-80
2023/03/27 00:15:20;;;;;;;12.88;1.40;;;;;;;2.75;100.00;101730.69;5032734;28;20034;-79
2023/03/27 00:17:47;;;;;;;7.25;1.52;;;;;;;2.77;100.00;101716.53;5033073;28;20029;-79
2023/03/27 00:20:21;;;;;;;9.55;1.65;;;;;;;2.78;100.00;101726.16;5032670;28;20084;-78
2023/03/27 00:22:54;;;;;;;13.30;1.50;;;;;;;2.79;100.00;101738.38;5033071;28;20033;-80
2023/03/27 00:25:25;;;;;;;10.52;2.10;;;;;;;2.79;100.00;101746.25;5015524;28;20454;-79
2023/03/27 00:27:53;;;;;;;12.02;1.45;;;;;;;2.85;100.00;101750.38;5032830;28;20036;-79
2023/03/27 00:30:19;;;;;;;10.93;1.58;;;;;;;2.89;100.00;101753.75;5033862;28;20029;-79
2023/03/27 00:32:45;;;;;;;5.90;1.10;;;;;;;2.93;100.00;101747.44;5036207;28;20050;-79
2023/03/27 00:35:12;;;;;;;11.50;1.42;;;;;;;2.95;100.00;101754.31;5036210;28;20029;-79
2023/03/27 00:37:37;;;;;;;6.72;1.20;;;;;;;2.95;100.00;101761.34;5036015;28;20056;-79
2023/03/27 00:40:06;;;;;;;4.88;1.20;;;;;;;2.95;100.00;101764.81;5036281;28;20034;-79
2023/03/27 00:42:32;;;;;;;9.70;1.67;;;;;;;2.97;100.00;101765.63;5035947;28;20025;-78
2023/03/27 00:44:58;;;;;;;8.43;1.25;;;;;;;2.98;100.00;101769.09;5018313;28;20038;-78
2023/03/27 00:47:31;;;;;;;7.60;1.27;;;;;;;3.00;100.00;101777.78;5036024;28;20036;-80
2023/03/27 00:50:00;;;;;;;4.45;0.88;;;;;;;3.05;100.00;101780.22;5036396;28;20056;-78
2023/03/27 00:52:28;;;;;;;4.88;1.17;;;;;;;3.12;100.00;101777.25;5036381;28;20080;-78
2023/03/27 00:54:59;;;;;;;14.02;1.60;;;;;;;3.18;100.00;101784.88;5036005;28;20045;-77
2023/03/27 00:57:25;;;;;;;10.85;1.45;;;;;;;3.13;100.00;101796.50;5021641;28;20150;-76
2023/03/27 00:59:53;;;;;;;7.78;1.35;;;;;;;2.91;100.00;101792.19;5039141;28;20069;-77
2023/03/27 01:02:20;;;;;;;7.82;1.48;;;;;;;2.69;100.00;101786.13;5035987;28;20033;-77
2023/03/27 01:04:46;;;;;;;5.82;1.38;;;;;;;2.52;100.00;101790.31;5035418;28;20517;-78
2023/03/27 01:07:13;;;;;;;8.30;1.98;;;;;;;2.39;100.00;101779.47;5035524;28;20026;-77
2023/03/27 01:09:38;;;;;;;4.80;1.30;;;;;;;2.24;100.00;101780.94;5035707;28;20029;-77
2023/03/27 01:12:25;;;;;;;8.50;1.52;;;;;;;2.16;100.00;101793.53;5035374;28;20386;-78
2023/03/27 01:15:08;;;;;;;10.82;1.55;;;;;;;2.12;100.00;101797.22;5035995;28;20029;-78
2023/03/27 01:17:52;;;;;;;5.35;1.48;;;;;;;2.13;100.00;101809.41;5035791;28;20044;-77
2023/03/27 01:20:18;;;;;;;5.85;1.08;;;;;;;2.17;100.00;101807.53;5035613;28;20124;-78
2023/03/27 01:23:51;;;;;;;6.20;1.42;;;;;;;2.15;100.00;101812.84;5035439;28;20079;-79
2023/03/27 01:26:36;;;;;;;7.00;1.13;;;;;;;2.11;100.00;101806.84;4942028;28;20143;-78
2023/03/27 01:29:37;;;;;;;10.90;1.35;;;;;;;2.09;100.00;101811.31;4955411;29;20042;-79
2023/03/27 01:32:50;;;;;;;7.70;1.15;;;;;;;2.07;100.00;101822.78;4990999;28;20072;-78
2023/03/27 01:35:24;;;;;;;7.32;1.90;;;;;;;2.01;100.00;101836.16;4938390;29;20089;-79
2023/03/27 01:38:07;;;;;;;4.75;0.93;;;;;;;1.95;100.00;101829.34;4954744;29;20039;-78
2023/03/27 01:40:37;;;;;;;10.13;1.58;;;;;;;1.86;100.00;101825.31;5010833;28;20059;-78
2023/03/27 01:43:14;;;;;;;2.63;0.65;;;;;;;1.79;100.00;101828.22;5035069;28;20068;-78
2023/03/27 01:45:49;;;;;;;4.20;1.02;;;;;;;1.72;100.00;101831.09;5035076;28;20033;-78
2023/03/27 01:48:18;;;;;;;8.55;1.30;;;;;;;1.68;100.00;101833.88;5051093;28;20056;-78
2023/03/27 01:50:43;;;;;;;3.97;1.17;;;;;;;1.61;100.00;101841.13;5034792;28;20139;-78
2023/03/27 01:53:27;;;;;;;5.88;1.58;;;;;;;1.57;100.00;101848.25;5035366;28;20108;-78
2023/03/27 01:55:59;;;;;;;8.73;1.85;;;;;;;1.51;100.00;101845.88;5035038;28;20116;-79
2023/03/27 01:58:37;;;;;;;5.88;0.90;;;;;;;1.56;100.00;101849.16;5035057;28;20035;-78
2023/03/27 02:01:04;;;;;;;9.05;1.20;;;;;;;1.68;100.00;101873.25;5035327;28;20057;-79
2023/03/27 02:03:42;;;;;;;9.10;1.25;;;;;;;1.87;100.00;101876.06;5034585;28;20473;-78
2023/03/27 02:06:22;;;;;;;4.78;1.00;;;;;;;1.87;100.00;101894.44;5034853;28;20033;-77
2023/03/27 02:08:47;;;;;;;4.20;0.88;;;;;;;1.75;100.00;101911.47;5034872;28;20033;-77
2023/03/27 02:11:13;;;;;;;3.72;0.63;;;;;;;1.55;100.00;101912.19;5034734;28;20072;-77
2023/03/27 02:13:56;;;;;;;2.85;0.82;;;;;;;1.37;100.00;101905.81;5034680;28;20042;-77
2023/03/27 02:16:27;;;;;;;2.22;0.93;;;;;;;1.18;100.00;101882.00;5034746;28;20488;-77
2023/03/27 02:19:00;;;;;;;4.13;0.70;;;;;;;1.02;100.00;101882.53;5034385;28;20107;-78
2023/03/27 02:21:26;;;;;;;0.77;0.65;;;;;;;0.95;100.00;101883.63;5033808;28;20113;-78
2023/03/27 02:23:52;;;;;;;3.47;0.65;;;;;;;0.88;100.00;101879.50;5035226;28;20033;-78
2023/03/27 02:26:17;;;;;;;4.00;0.70;;;;;;;0.80;100.00;101873.66;5033105;28;20469;-77
2023/03/27 02:28:51;;;;;;;4.03;0.80;;;;;;;0.75;100.00;101879.06;5034180;28;20037;-77
2023/03/27 02:31:24;;;;;;;1.25;0.60;;;;;;;0.70;100.00;101884.47;5033682;28;20449;-78
2023/03/27 02:34:27;;;;;;;1.00;0.63;;;;;;;0.65;100.00;101882.88;5034283;28;20067;-78
2023/03/27 02:37:14;;;;;;;2.67;1.17;;;;;;;0.55;100.00;101884.94;5034055;28;20026;-77
2023/03/27 02:39:52;;;;;;;3.05;0.80;;;;;;;0.46;100.00;101885.22;5033797;28;20022;-78
2023/03/27 02:42:18;;;;;;;1.55;0.77;;;;;;;0.39;100.00;101889.81;5049644;28;20021;-78
2023/03/27 02:45:09;;;;;;;2.90;0.80;;;;;;;0.31;100.00;101897.91;5033622;28;20183;-77
2023/03/27 02:47:38;;;;;;;3.92;0.70;;;;;;;0.23;100.00;101899.03;5033901;28;20534;-78
2023/03/27 02:50:15;;;;;;;5.20;0.80;;;;;;;0.20;100.00;101897.38;5033832;28;20154;-79
2023/03/27 02:52:45;;;;;;;4.10;1.00;;;;;;;0.14;100.00;101897.56;5032906;28;20034;-79
2023/03/27 02:55:21;;;;;;;4.70;1.10;;;;;;;0.11;100.00;101898.50;5033588;28;20029;-78
2023/03/27 02:57:52;;;;;;;5.15;1.10;;;;;;;0.09;100.00;101905.56;5033378;28;20056;-78
2023/03/27 03:00:24;;;;;;;2.55;0.80;;;;;;;0.15;100.00;101920.19;5034302;28;20034;-78
2023/03/27 03:03:07;;;;;;;1.48;0.80;;;;;;;0.26;100.00;101925.97;5034128;28;20163;-78
2023/03/27 03:05:35;;;;;;;4.68;1.40;;;;;;;0.46;100.00;101929.75;5016026;28;20122;-78
2023/03/27 03:08:01;;;;;;;5.75;0.93;;;;;;;0.62;100.00;101943.25;5033480;28;20064;-77
2023/03/27 03:10:26;;;;;;;5.15;1.15;;;;;;;0.77;100.00;101952.38;5015749;28;20064;-77
2023/03/27 03:12:52;;;;;;;4.00;1.10;;;;;;;0.87;100.00;101952.03;5033639;28;20110;-77
2023/03/27 03:15:17;;;;;;;1.88;0.73;;;;;;;0.97;100.00;101952.59;5033231;28;20036;-77
2023/03/27 03:17:44;;;;;;;6.32;1.13;;;;;;;1.02;100.00;101948.06;5033206;28;20033;-77
2023/03/27 03:20:11;;;;;;;5.90;1.17;;;;;;;1.01;100.00;101948.09;5033012;28;20033;-77
2023/03/27 03:22:38;;;;;;;5.30;0.88;;;;;;;1.00;100.00;101947.25;5015484;28;20087;-78
2023/03/27 03:25:05;;;;;;;3.30;0.80;;;;;;;0.98;100.00;101954.28;5015961;28;20116;-78
2023/03/27 03:27:30;;;;;;;6.60;1.67;;;;;;;0.93;100.00;101961.47;5032911;28;20390;-77
2023/03/27 03:29:55;;;;;;;2.92;0.80;;;;;;;0.86;100.00;101955.53;5048572;28;20034;-77
2023/03/27 03:32:21;;;;;;;2.88;1.20;;;;;;;0.82;100.00;101968.78;5033301;28;20576;-77
2023/03/27 03:34:47;;;;;;;7.20;1.17;;;;;;;0.75;100.00;101972.50;5033244;28;20029;-77
2023/03/27 03:37:12;;;;;;;6.60;1.42;;;;;;;0.72;100.00;101972.59;5033209;28;20040;-77
2023/03/27 03:39:37;;;;;;;4.30;1.33;;;;;;;0.70;100.00;101970.03;5033515;28;20053;-77
2023/03/27 03:42:03;;;;;;;6.60;0.75;;;;;;;0.65;100.00;101972.81;5033539;28;20120;-78
2023/03/27 03:44:29;;;;;;;5.68;1.70;;;;;;;0.56;100.00;101980.09;5015895;28;20462;-79
2023/03/27 03:46:54;;;;;;;2.97;1.00;;;;;;;0.47;100.00;101983.84;5033095;28;20038;-77
2023/03/27 03:49:20;;;;;;;4.03;0.90;;;;;;;0.35;100.00;101975.44;5032959;28;20064;-79
2023/03/27 03:51:46;;;;;;;4.80;0.98;;;;;;;0.27;100.00;101989.66;5035018;28;20041;-78
2023/03/27 03:54:11;;;;;;;7.70;1.75;;;;;;;0.17;100.00;101983.84;5033860;28;20484;-78
2023/03/27 03:56:40;;;;;;;5.30;1.17;;;;;;;0.14;100.00;101986.56;5033212;28;20120;-78
2023/03/27 03:59:10;;;;;;;4.13;1.00;;;;;;;0.17;100.00;101994.31;5015756;28;20040;-78
2023/03/27 04:01:36;;;;;;;8.77;1.20;;;;;;;0.19;100.00;101994.28;5032980;28;20030;-78
2023/03/27 04:04:02;;;;;;;6.18;1.30;;;;;;;0.28;100.00;101996.63;5015989;28;20059;-78
2023/03/27 04:06:29;;;;;;;4.82;1.42;;;;;;;0.31;100.00;102000.03;5018951;28;20045;-79
2023/03/27 04:08:56;;;;;;;4.05;1.20;;;;;;;0.37;100.00;101993.72;5036529;28;20034;-78
2023/03/27 04:11:21;;;;;;;8.23;1.48;;;;;;;0.38;100.00;101991.97;5036792;28;20037;-78
2023/03/27 04:13:47;;;;;;;4.28;0.90;;;;;;;0.43;100.00;102000.56;5036748;28;20034;-78
2023/03/27 04:16:12;;;;;;;6.07;1.35;;;;;;;0.46;100.00;102000.47;5036673;28;20040;-78
2023/03/27 04:18:39;;;;;;;8.00;1.45;;;;;;;0.48;100.00;102001.28;5036527;28;20384;-78
2023/03/27 04:21:13;;;;;;;9.18;1.63;;;;;;;0.53;100.00;102015.94;5036714;28;20036;-79
2023/03/27 04:23:42;;;;;;;7.40;1.58;;;;;;;0.65;100.00;102016.47;5018936;28;20038;-78
2023/03/27 04:26:10;;;;;;;9.43;1.58;;;;;;;0.72;100.00;102022.38;5018889;28;20091;-78
2023/03/27 04:28:37;;;;;;;10.30;2.15;;;;;;;0.76;100.00;102027.50;5036348;28;20473;-78
2023/03/27 04:31:05;;;;;;;14.50;1.90;;;;;;;0.83;100.00;102044.75;5051898;28;20037;-78
2023/03/27 04:33:38;;;;;;;2.58;1.27;;;;;;;0.99;100.00;102052.16;5036389;28;20028;-83
2023/03/27 04:36:05;;;;;;;8.48;1.25;;;;;;;1.22;100.00;102051.41;5036031;28;20043;-77
2023/03/27 04:38:35;;;;;;;4.55;1.60;;;;;;;1.32;100.00;102060.69;5036401;28;20080;-83
2023/03/27 04:41:02;;;;;;;5.93;1.48;;;;;;;1.35;100.00;102057.97;5036227;28;20040;-76
2023/03/27 04:43:28;;;;;;;9.80;1.58;;;;;;;1.34;100.00;102071.13;5036155;28;20041;-76
2023/03/27 04:45:53;;;;;;;6.32;1.80;;;;;;;1.35;100.00;102075.50;5019080;28;20152;-77
2023/03/27 04:48:19;;;;;;;8.82;1.85;;;;;;;1.31;100.00;102068.63;5036374;28;20029;-77
2023/03/27 04:50:49;;;;;;;7.43;1.65;;;;;;;1.21;100.00;102073.31;5035978;28;20057;-77
2023/03/27 04:53:22;;;;;;;13.07;1.85;;;;;;;1.11;100.00;102069.25;5018157;28;20025;-76
2023/03/27 04:55:49;;;;;;;16.30;2.00;;;;;;;0.97;100.00;102061.81;5035429;28;20551;-78
2023/03/27 04:58:16;;;;;;;6.15;1.77;;;;;;;0.86;100.00;102067.38;5035667;28;20025;-78
2023/03/27 05:00:48;;;;;;;9.57;1.73;;;;;;;0.78;100.00;102062.38;5018613;28;20519;-77
2023/03/27 05:03:15;;;;;;;8.40;2.03;;;;;;;0.73;100.00;102056.41;5036342;28;20033;-77
2023/03/27 05:05:40;;;;;;;19.58;2.22;;;;;;;0.74;100.00;102067.75;5018053;28;20465;-77
2023/03/27 05:08:05;;;;;;;6.57;2.00;;;;;;;0.68;100.00;102067.00;5035883;28;20084;-78
2023/03/27 05:10:31;;;;;;;11.70;2.53;;;;;;;0.61;100.00;102065.50;5018028;28;20112;-78
2023/03/27 05:12:57;;;;;;;8.63;1.52;;;;;;;0.49;100.00;102071.06;5036191;28;20061;-77
2023/03/27 05:15:23;;;;;;;5.18;2.08;;;;;;;0.39;100.00;102061.75;5035046;28;20043;-77
2023/03/27 05:17:53;;;;;;;9.57;1.88;;;;;;;0.30;100.00;102060.25;5035564;28;20033;-77
2023/03/27 05:20:19;;;;;;;6.25;1.50;;;;;;;0.18;100.00;102066.72;5002650;28;20033;-76
2023/03/27 05:22:45;;;;;;;15.07;2.38;;;;;;;0.07;100.00;102072.22;5035362;28;20033;-76
2023/03/27 05:25:12;;;;;;;7.40;1.77;;;;;;;0.01;100.00;102074.16;5035544;28;20034;-78
2023/03/27 05:27:42;;;;;;;4.82;1.42;;;;;;;-0.09;100.00;102079.63;5051193;28;20069;-77
2023/03/27 05:30:08;;;;;;;6.20;1.35;;;;;;;-0.16;100.00;102083.31;5035405;28;20033;-77
2023/03/27 05:32:34;;;;;;;13.52;2.00;;;;;;;-0.24;100.00;102086.13;5017703;28;20076;-77
2023/03/27 05:35:00;;;;;;;10.10;1.42;;;;;;;-0.29;100.00;102084.50;5035363;28;20485;-78
2023/03/27 05:37:26;;;;;;;6.35;1.70;;;;;;;-0.32;100.00;102088.06;5035269;28;20025;-78
2023/03/27 05:39:51;;;;;;;8.25;1.73;;;;;;;-0.31;100.00;102089.78;5035127;28;20045;-78
2023/03/27 05:42:17;;;;;;;13.80;1.98;;;;;;;-0.22;100.00;102093.94;5035264;28;20033;-77
2023/03/27 05:44:42;;;;;;;11.88;1.50;;;;;;;-0.06;100.00;102103.09;5035075;28;20436;-78
2023/03/27 05:47:09;;;;;;;7.90;1.75;;;;;;;0.06;100.00;102104.56;5050698;28;20033;-78
2023/03/27 05:49:35;;;;;;;8.32;1.60;;;;;;;0.15;100.00;102103.41;5034678;28;20045;-77
2023/03/27 05:52:01;;;;;;;8.60;1.85;;;;;;;0.22;100.00;102115.44;5017152;28;20373;-78
2023/03/27 05:54:26;;;;;;;7.72;1.80;;;;;;;0.27;100.00;102110.97;5034686;28;20029;-78
2023/03/27 05:56:52;;;;;;;13.70;2.00;;;;;;;0.32;100.00;102109.06;5034826;28;20116;-78
2023/03/27 05:59:18;;;;;;;8.40;1.38;;;;;;;0.39;100.00;102122.88;5017248;28;20037;-77
2023/03/27 06:01:44;;;;;;;12.82;2.10;;;;;;;0.46;100.00;102118.31;5050584;28;20436;-77
2023/03/27 06:04:11;;;;;;;12.18;1.95;;;;;;;0.57;100.00;102121.50;5034651;28;20120;-77
2023/03/27 06:06:37;;;;;;;15.20;2.22;;;;;;;0.74;100.00;102105.28;5016868;28;20033;-78
2023/03/27 06:09:03;;;;;;;10.00;1.85;;;;;;;0.90;100.00;102124.03;5034631;28;20041;-78
2023/03/27 06:11:29;;;;;;;12.93;1.98;;;;;;;0.98;100.00;102127.28;5034341;28;20441;-77
2023/03/27 06:13:54;;;;;;;6.18;1.85;;;;;;;1.08;100.00;102127.88;5034617;28;20050;-77
2023/03/27 06:16:20;;;;;;;11.07;1.83;;;;;;;1.15;100.00;102137.28;5034480;28;20591;-77
2023/03/27 06:18:47;;;;;;;9.60;1.55;;;;;;;1.25;100.00;102132.59;5017117;28;20061;-77
2023/03/27 06:21:12;;;;;;;7.93;1.40;;;;;;;1.36;100.00;102137.53;5016685;28;20038;-77
2023/03/27 06:23:38;;;;;;;6.68;1.42;;;;;;;1.50;100.00;102144.97;5034642;28;20030;-77
2023/03/27 06:26:04;;;;;;;6.47;1.52;;;;;;;1.70;100.00;102141.69;5034023;28;20033;-77
2023/03/27 06:28:30;;;;;;;9.07;1.90;;;;;;;1.84;100.00;102147.34;5033149;28;20033;-80
2023/03/27 06:30:56;;;;;;;7.93;1.30;;;;;;;1.97;100.00;102144.31;5034132;28;20495;-78
2023/03/27 06:33:24;;;;;;;5.75;1.20;;;;;;;2.12;100.00;102143.81;5034231;28;20037;-78
2023/03/27 06:35:50;;;;;;;7.60;1.67;;;;;;;2.27;100.00;102152.94;5034095;28;20033;-78
2023/03/27 06:38:17;;;;;;;7.45;1.73;;;;;;;2.41;100.00;102149.81;5016413;28;20036;-78
2023/03/27 06:40:43;;;;;;;7.88;1.95;;;;;;;2.50;100.00;102160.00;5016766;28;20049;-79
2023/03/27 06:43:10;;;;;;;9.18;1.42;;;;;;;2.59;100.00;102164.91;5034882;28;20044;-79
2023/03/27 06:45:47;;;;;;;7.78;1.20;;;;;;;2.69;100.00;102170.72;5034139;28;20025;-77
2023/03/27 06:48:15;;;;;;;5.95;1.25;;;;;;;2.72;100.00;102180.25;5034016;28;20041;-77
2023/03/27 06:50:41;;;;;;;4.63;1.60;;;;;;;2.64;100.00;102170.88;5033350;28;20049;-77
2023/03/27 06:53:07;;;;;;;7.57;1.30;;;;;;;2.57;100.00;102177.25;5033824;28;20053;-78
2023/03/27 06:55:33;;;;;;;9.77;1.27;;;;;;;2.57;100.00;102181.66;5033821;28;20033;-76
2023/03/27 06:58:00;;;;;;;6.15;1.50;;;;;;;2.57;100.00;102173.78;5033705;28;20061;-77
2023/03/27 07:00:33;;;;;;;11.90;1.35;;;;;;;2.55;100.00;102180.84;5033663;28;20060;-77
2023/03/27 07:03:01;;;;;;;13.35;1.55;;;;;;;2.54;100.00;102179.13;5033929;28;20103;-80
2023/03/27 07:05:29;;;;;;;6.15;1.35;;;;;;;2.49;100.00;102189.78;5033337;28;20456;-76
2023/03/27 07:07:55;;;;;;;7.68;1.33;;;;;;;2.47;100.00;102202.13;5033277;28;20037;-75
2023/03/27 07:10:22;;;;;;;7.65;1.13;;;;;;;2.41;100.00;102191.84;5033947;28;20407;-76
2023/03/27 07:12:49;;;;;;;7.75;1.48;;;;;;;2.39;100.00;102193.66;5032857;28;20382;-76
2023/03/27 07:15:15;;;;;;;5.22;1.65;;;;;;;2.45;100.00;102207.44;5033038;28;20466;-76
2023/03/27 07:17:42;;;;;;;4.35;1.23;;;;;;;2.61;100.00;102202.53;5032881;28;20044;-77
2023/03/27 07:20:09;;;;;;;10.75;1.17;;;;;;;2.73;100.00;102211.75;5015762;28;20449;-77
2023/03/27 07:22:35;;;;;;;11.52;1.40;;;;;;;2.79;100.00;102210.63;4999844;28;20350;-78
2023/03/27 07:25:01;;;;;;;13.00;1.25;;;;;;;2.82;100.00;102214.03;5033054;28;20041;-77
2023/03/27 07:27:26;;;;;;;5.28;1.30;;;;;;;2.84;100.00;102221.88;5033207;28;20508;-78
2023/03/27 07:29:52;;;;;;;9.65;1.45;;;;;;;2.95;100.00;102224.09;5033178;28;20033;-79
2023/03/27 07:32:18;;;;;;;12.48;1.52;;;;;;;3.19;100.00;102217.06;5033012;28;20457;-79
2023/03/27 07:34:43;;;;;;;10.70;1.90;;;;;;;3.36;100.00;102224.34;5048210;28;20030;-80
2023/03/27 07:37:10;;;;;;;9.32;1.20;;;;;;;3.38;100.00;102235.66;5033336;28;20109;-79
2023/03/27 07:39:35;;;;;;;15.05;2.22;;;;;;;3.29;100.00;102238.66;5036377;28;20040;-79
2023/03/27 07:42:01;;;;;;;8.45;1.42;;;;;;;3.18;100.00;102245.16;5039280;28;20033;-78
2023/03/27 07:44:26;;;;;;;11.63;1.80;;;;;;;3.19;100.00;102240.75;5021675;28;20032;-76
2023/03/27 07:46:52;;;;;;;6.63;1.33;;;;;;;3.29;100.00;102238.66;5021633;28;20040;-78
2023/03/27 07:49:18;;;;;;;8.50;1.38;;;;;;;3.41;100.00;102245.22;5039342;28;20466;-77
2023/03/27 07:51:44;;;;;;;4.32;0.70;;;;;;;3.50;100.00;102239.59;5021348;28;20065;-76
2023/03/27 07:54:12;;;;;;;10.32;1.50;;;;;;;3.64;100.00;102246.94;5022529;28;20088;-78
2023/03/27 07:56:38;;;;;;;4.93;1.20;;;;;;;3.81;100.00;102248.94;5040064;28;20450;-77
2023/03/27 07:59:03;;;;;;;2.15;0.90;;;;;;;3.95;100.00;102254.50;5039214;28;20508;-76
2023/03/27 08:01:29;;;;;;;7.03;0.98;;;;;;;4.17;100.00;102251.00;5054618;28;20033;-85
2023/03/27 08:03:55;;;;;;;5.25;1.58;;;;;;;4.47;100.00;102261.19;5039984;28;20040;-78
2023/03/27 08:06:21;;;;;;;5.05;1.20;;;;;;;4.68;100.00;102264.69;5054790;28;20025;-78
2023/03/27 08:08:47;;;;;;;11.93;1.63;;;;;;;5.20;100.00;102265.03;5021798;28;20036;-78
2023/03/27 08:11:12;;;;;;;6.97;1.13;;;;;;;5.28;100.00;102265.56;5021882;28;20060;-79
2023/03/27 08:13:38;;;;;;;12.25;2.15;;;;;;;5.32;100.00;102271.53;5038203;28;20144;-78
2023/03/27 08:16:06;;;;;;;8.18;1.75;;;;;;;5.38;100.00;102276.53;5039591;28;20056;-80
2023/03/27 08:18:31;;;;;;;7.75;1.73;;;;;;;5.29;100.00;102274.31;5039408;28;20029;-80
2023/03/27 08:20:59;;;;;;;3.50;0.70;;;;;;;5.26;100.00;102288.50;5039161;28;20080;-82
2023/03/27 08:23:27;;;;;;;6.15;1.00;;;;;;;5.08;100.00;102282.25;5039417;28;20230;-78
2023/03/27 08:25:53;;;;;;;6.00;1.30;;;;;;;4.94;100.00;102282.00;5038594;28;20038;-78
2023/03/27 08:28:20;;;;;;;5.18;1.25;;;;;;;4.94;100.00;102282.88;5039398;28;20038;-80
2023/03/27 08:30:46;;;;;;;6.32;1.05;;;;;;;5.21;100.00;102286.97;5039585;28;20445;-79
2023/03/27 08:33:11;;;;;;;9.73;1.38;;;;;;;5.44;100.00;102294.72;5039429;28;20068;-79
2023/03/27 08:35:36;;;;;;;5.80;1.00;;;;;;;5.71;100.00;102290.91;5039439;28;20082;-81
2023/03/27 08:38:03;;;;;;;8.27;1.17;;;;;;;6.05;100.00;102284.03;5039301;28;20041;-75
2023/03/27 08:40:32;;;;;;;7.43;1.50;;;;;;;6.26;100.00;102290.91;5039208;28;20123;-78
2023/03/27 08:43:05;;;;;;;4.15;1.15;;;;;;;6.40;100.00;102289.38;5021237;28;20079;-77
2023/03/27 08:45:55;;;;;;;8.45;1.40;;;;;;;6.69;100.00;102295.84;5021454;28;20041;-77
2023/03/27 08:48:31;;;;;;;13.10;1.48;;;;;;;7.19;100.00;102312.66;5039970;28;20033;-82
2023/03/27 08:51:07;;;;;;;5.95;1.00;;;;;;;7.41;100.00;102309.75;5018597;28;20057;-81
2023/03/27 08:53:43;;;;;;;13.80;1.55;;;;;;;7.85;100.00;102318.84;5036474;28;20041;-77
2023/03/27 08:56:16;;;;;;;6.20;1.25;;;;;;;8.50;100.00;102318.72;5036128;28;20029;-79
2023/03/27 08:58:43;;;;;;;8.88;1.42;;;;;;;9.55;85.09;102325.69;5018807;28;20040;-77
2023/03/27 09:01:28;;;;;;;7.80;1.70;;;;;;;9.86;71.91;102331.72;5036620;28;20075;-83
2023/03/27 09:04:23;;;;;;;10.25;1.70;;;;;;;10.37;68.45;102337.28;5035919;28;20025;-83
2023/03/27 09:07:07;;;;;;;9.27;1.65;;;;;;;10.03;69.78;102350.13;5012454;28;20037;-83
2023/03/27 09:09:58;;;;;;;4.60;1.10;;;;;;;9.31;89.65;102363.44;5035866;28;20477;-82
2023/03/27 09:12:49;;;;;;;12.48;1.63;;;;;;;9.70;90.18;102358.41;5035998;28;20037;-82
2023/03/27 09:15:21;;;;;;;11.77;1.75;;;;;;;10.92;74.52;102359.38;5029993;28;20485;-79
2023/03/27 09:18:03;;;;;;;6.93;1.30;;;;;;;11.70;68.57;102360.22;5036024;28;20075;-76
2023/03/27 09:20:37;;;;;;;8.88;2.42;;;;;;;12.09;63.50;102370.81;5035764;28;20043;-80
2023/03/27 09:23:07;;;;;;;8.13;3.08;;;;;;;12.31;60.80;102370.09;5035695;28;20087;-78
2023/03/27 09:25:39;;;;;;;7.72;1.67;;;;;;;13.49;56.74;102376.31;5050887;28;20034;-75
2023/03/27 09:28:17;;;;;;;9.95;1.33;;;;;;;13.37;55.72;102374.59;5017747;28;20030;-79
2023/03/27 09:30:43;;;;;;;4.75;1.95;;;;;;;12.85;57.54;102371.44;5036317;28;20053;-79
2023/03/27 09:33:09;;;;;;;6.30;1.75;;;;;;;13.11;56.74;102373.94;5036037;28;20038;-86
2023/03/27 09:35:37;;;;;;;7.20;1.25;;;;;;;14.21;53.05;102374.19;5035836;28;20021;-80
2023/03/27 09:38:18;;;;;;;8.25;1.48;;;;;;;14.78;50.41;102372.19;5034997;28;20036;-80
2023/03/27 09:41:05;;;;;;;7.72;1.40;;;;;;;13.34;50.80;102367.66;5035488;28;20080;-81
2023/03/27 09:43:52;;;;;;;6.50;1.30;;;;;;;11.50;55.35;102380.28;5035155;28;20029;-81
2023/03/27 09:46:20;;;;;;;5.82;1.23;;;;;;;9.94;63.57;102374.66;5035125;28;20033;-81
2023/03/27 09:48:55;;;;;;;8.10;1.83;;;;;;;8.44;77.47;102383.59;5050462;28;20112;-79
2023/03/27 09:51:41;;;;;;;5.88;1.55;;;;;;;7.11;91.36;102389.84;5035091;28;20049;-78
2023/03/27 09:54:08;;;;;;;4.43;1.17;;;;;;;6.41;99.43;102378.34;5034918;28;20033;-79
2023/03/27 09:56:41;;;;;;;11.35;1.38;;;;;;;6.41;100.00;102384.47;5034981;28;20029;-81
2023/03/27 09:59:37;;;;;;;10.35;2.13;;;;;;;9.04;85.58;102383.72;5017181;28;20061;-84
2023/03/27 10:02:22;;;;;;;5.28;1.13;;;;;;;11.95;58.01;102379.84;5019486;28;20103;-79
2023/03/27 10:04:58;;;;;;;6.47;1.20;;;;;;;13.75;51.89;102368.91;5017692;28;20361;-77
2023/03/27 10:07:25;;;;;;;8.25;1.60;;;;;;;15.26;47.75;102386.91;5034519;28;20057;-75
2023/03/27 10:10:16;;;;;;;7.15;1.63;;;;;;;12.41;55.41;102413.00;5034642;28;20087;-74
2023/03/27 10:12:42;;;;;;;13.40;2.15;;;;;;;10.14;67.38;102410.59;5008074;28;20096;-74
2023/03/27 10:15:31;;;;;;;2.55;1.02;;;;;;;7.63;76.19;102410.09;5034640;28;20458;-75
2023/03/27 10:17:57;;;;;;;2.20;0.88;;;;;;;6.67;88.77;102419.38;5034500;28;20077;-74
2023/03/27 10:20:23;;;;;;;2.03;0.80;;;;;;;7.11;92.83;102412.81;5016747;28;20037;-76
2023/03/27 10:22:54;;;;;;;5.13;0.75;;;;;;;9.24;74.66;102414.38;5034333;28;20084;-76
2023/03/27 10:25:30;;;;;;;3.85;0.90;;;;;;;11.26;59.46;102407.69;5034146;28;20469;-76
2023/03/27 10:28:22;;;;;;;2.47;0.90;;;;;;;12.50;52.53;102423.84;5034284;28;20034;-76
2023/03/27 10:31:04;;;;;;;;;;;;;;;13.33;49.25;102422.09;5034550;28;20031;-74
2023/03/27 10:33:35;;;;;;;0.95;0.35;;;;;;;13.80;45.43;102426.53;5034334;28;19932;-75
2023/03/27 10:36:03;;;;;;;2.50;1.08;;;;;;;13.35;45.13;102420.19;5033894;28;20092;-76
2023/03/27 10:38:32;;;;;;;2.17;0.55;;;;;;;13.42;46.83;102428.59;5049238;28;20037;-76
2023/03/27 10:40:59;;;;;;;3.17;0.80;;;;;;;13.26;46.62;102430.72;5034582;28;20060;-76
2023/03/27 10:43:29;;;;;;;4.63;1.13;;;;;;;13.46;47.56;102434.53;5033602;28;20113;-76
2023/03/27 10:45:59;;;;;;;2.57;1.20;;;;;;;13.68;48.93;102428.38;5033973;28;20033;-76
2023/03/27 10:48:48;;;;;;;7.45;1.20;;;;;;;14.12;47.91;102437.34;5033844;28;20036;-76
2023/03/27 10:51:42;;;;;;;3.15;1.08;;;;;;;14.43;48.94;102434.84;5033992;28;20046;-75
2023/03/27 10:54:15;;;;;;;3.22;1.40;;;;;;;14.15;49.15;102430.88;5034345;28;20056;-76
2023/03/27 10:56:55;;;;;;;9.88;1.33;;;;;;;12.94;50.21;102444.69;5033979;28;20152;-75
2023/03/27 10:59:28;;;;;;;8.18;1.42;;;;;;;11.06;55.11;102451.69;5034510;28;20518;-75
2023/03/27 11:01:59;;;;;;;7.95;1.27;;;;;;;9.67;62.21;102455.16;5033922;28;20033;-77
2023/03/27 11:04:50;;;;;;;11.77;1.38;;;;;;;10.34;54.84;102445.75;5033616;28;20084;-76
2023/03/27 11:07:25;;;;;;;3.78;1.00;;;;;;;11.34;52.46;102444.47;5033791;28;20033;-77
2023/03/27 11:10:09;;;;;;;10.77;1.40;;;;;;;12.73;48.52;102441.81;5033675;28;20025;-75
2023/03/27 11:12:37;;;;;;;3.35;1.08;;;;;;;13.63;45.94;102449.25;5033724;28;20457;-76
2023/03/27 11:15:06;;;;;;;4.07;1.33;;;;;;;13.44;44.00;102463.22;5032800;28;20429;-76
2023/03/27 11:17:39;;;;;;;4.57;0.93;;;;;;;13.32;45.72;102452.47;5033550;28;20364;-76
2023/03/27 11:20:16;;;;;;;4.88;1.20;;;;;;;13.75;46.65;102454.50;5033715;28;20026;-75
2023/03/27 11:22:46;;;;;;;10.45;1.30;;;;;;;13.88;48.40;102469.59;5033695;28;20034;-75
2023/03/27 11:25:31;;;;;;;5.07;1.50;;;;;;;14.46;49.64;102467.59;5033600;28;20029;-75
2023/03/27 11:28:16;;;;;;;10.48;1.58;;;;;;;14.54;46.48;102464.28;5033937;28;20087;-76
2023/03/27 11:31:05;;;;;;;10.85;2.00;;;;;;;13.38;47.44;102469.88;5033457;28;20522;-76
2023/03/27 11:33:48;;;;;;;8.88;1.65;;;;;;;12.75;46.91;102474.56;5033197;28;20030;-76
2023/03/27 11:36:42;;;;;;;4.90;1.00;;;;;;;12.67;46.98;102488.50;5032851;28;20026;-77
2023/03/27 11:39:22;;;;;;;1.83;0.70;;;;;;;12.79;47.30;102494.75;5032933;28;20526;-78
2023/03/27 11:41:54;;;;;;;4.82;1.15;;;;;;;12.98;45.53;102476.41;5033437;28;20163;-77